sensor_id;sensor_type;location;lat;lon;timestamp;P1;durP1;ratioP1;P2;durP2;ratioP2
12770;SDS011;6449;47.666;9.160;2023-02-27T00:03:26;4.07;;;3.67;;
12770;SDS011;6449;47.666;9.160;2023-02-27T00:08:20;3.87;;;3.20;;
12770;SDS011;6449;47.666;9.160;2023-02-27T00:13:15;3.37;;;2.93;;
12770;SDS011;6449;47.666;9.160;2023-02-27T00:18:09;3.60;;;3.17;;
12770;SDS011;6449;47.666;9.160;2023-02-27T00:23:02;3.37;;;3.07;;
12770;SDS011;6449;47.666;9.160;2023-02-27T00:27:57;3.70;;;3.30;;
12770;SDS011;6449;47.666;9.160;2023-02-27T00:32:52;3.30;;;3.00;;
12770;SDS011;6449;47.666;9.160;2023-02-27T00:37:46;4.87;;;3.63;;
12770;SDS011;6449;47.666;9.160;2023-02-27T00:42:40;4.50;;;3.10;;
12770;SDS011;6449;47.666;9.160;2023-02-27T00:47:34;4.30;;;3.10;;
12770;SDS011;6449;47.666;9.160;2023-02-27T00:52:29;3.33;;;3.03;;
12770;SDS011;6449;47.666;9.160;2023-02-27T00:57:24;3.30;;;3.00;;
12770;SDS011;6449;47.666;9.160;2023-02-27T01:02:18;3.53;;;3.00;;
12770;SDS011;6449;47.666;9.160;2023-02-27T01:07:11;4.00;;;3.00;;
12770;SDS011;6449;47.666;9.160;2023-02-27T01:12:07;4.57;;;3.03;;
12770;SDS011;6449;47.666;9.160;2023-02-27T01:17:00;4.10;;;2.83;;
12770;SDS011;6449;47.666;9.160;2023-02-27T01:21:54;2.83;;;2.47;;
12770;SDS011;6449;47.666;9.160;2023-02-27T01:26:48;5.87;;;3.23;;
12770;SDS011;6449;47.666;9.160;2023-02-27T01:31:44;2.87;;;2.63;;
12770;SDS011;6449;47.666;9.160;2023-02-27T01:36:41;4.70;;;3.33;;
12770;SDS011;6449;47.666;9.160;2023-02-27T01:41:34;3.47;;;2.93;;
12770;SDS011;6449;47.666;9.160;2023-02-27T01:46:28;3.43;;;3.13;;
12770;SDS011;6449;47.666;9.160;2023-02-27T01:51:25;3.53;;;3.20;;
12770;SDS011;6449;47.666;9.160;2023-02-27T01:56:28;4.00;;;3.50;;
12770;SDS011;6449;47.666;9.160;2023-02-27T02:01:23;4.67;;;3.50;;
12770;SDS011;6449;47.666;9.160;2023-02-27T02:06:18;4.10;;;3.70;;
12770;SDS011;6449;47.666;9.160;2023-02-27T02:11:18;5.53;;;3.27;;
12770;SDS011;6449;47.666;9.160;2023-02-27T02:16:22;3.80;;;3.40;;
12770;SDS011;6449;47.666;9.160;2023-02-27T02:21:43;4.00;;;3.57;;
12770;SDS011;6449;47.666;9.160;2023-02-27T02:27:30;3.67;;;3.17;;
12770;SDS011;6449;47.666;9.160;2023-02-27T02:44:01;3.30;;;3.00;;
12770;SDS011;6449;47.666;9.160;2023-02-27T02:49:09;3.77;;;3.20;;
12770;SDS011;6449;47.666;9.160;2023-02-27T02:54:15;3.80;;;3.10;;
12770;SDS011;6449;47.666;9.160;2023-02-27T02:59:18;3.60;;;3.30;;
12770;SDS011;6449;47.666;9.160;2023-02-27T03:04:19;3.07;;;2.87;;
12770;SDS011;6449;47.666;9.160;2023-02-27T03:09:22;4.33;;;3.23;;
12770;SDS011;6449;47.666;9.160;2023-02-27T03:14:27;3.17;;;2.80;;
12770;SDS011;6449;47.666;9.160;2023-02-27T03:19:28;3.43;;;3.13;;
12770;SDS011;6449;47.666;9.160;2023-02-27T03:24:31;4.63;;;2.80;;
12770;SDS011;6449;47.666;9.160;2023-02-27T03:29:34;3.90;;;3.20;;
12770;SDS011;6449;47.666;9.160;2023-02-27T03:34:35;3.53;;;2.80;;
12770;SDS011;6449;47.666;9.160;2023-02-27T03:39:37;4.13;;;3.00;;
12770;SDS011;6449;47.666;9.160;2023-02-27T03:44:40;3.53;;;3.23;;
12770;SDS011;6449;47.666;9.160;2023-02-27T03:49:46;3.30;;;3.00;;
12770;SDS011;6449;47.666;9.160;2023-02-27T03:54:44;3.40;;;3.10;;
12770;SDS011;6449;47.666;9.160;2023-02-27T03:59:44;3.63;;;3.30;;
12770;SDS011;6449;47.666;9.160;2023-02-27T04:04:38;3.43;;;3.13;;
12770;SDS011;6449;47.666;9.160;2023-02-27T04:09:36;3.97;;;3.17;;
12770;SDS011;6449;47.666;9.160;2023-02-27T04:15:07;4.50;;;3.50;;
12770;SDS011;6449;47.666;9.160;2023-02-27T04:20:16;3.67;;;3.30;;
12770;SDS011;6449;47.666;9.160;2023-02-27T04:25:48;3.23;;;2.93;;
12770;SDS011;6449;47.666;9.160;2023-02-27T04:31:00;5.33;;;3.47;;
12770;SDS011;6449;47.666;9.160;2023-02-27T04:36:07;3.70;;;3.10;;
12770;SDS011;6449;47.666;9.160;2023-02-27T04:41:10;4.87;;;3.70;;
12770;SDS011;6449;47.666;9.160;2023-02-27T04:46:12;3.50;;;3.20;;
12770;SDS011;6449;47.666;9.160;2023-02-27T04:51:13;3.43;;;3.10;;
12770;SDS011;6449;47.666;9.160;2023-02-27T04:56:13;3.50;;;3.17;;
12770;SDS011;6449;47.666;9.160;2023-02-27T05:01:13;3.87;;;3.10;;
12770;SDS011;6449;47.666;9.160;2023-02-27T05:06:13;3.80;;;3.47;;
12770;SDS011;6449;47.666;9.160;2023-02-27T05:11:16;4.70;;;3.30;;
12770;SDS011;6449;47.666;9.160;2023-02-27T05:16:19;4.50;;;3.40;;
12770;SDS011;6449;47.666;9.160;2023-02-27T05:21:21;4.60;;;3.40;;
12770;SDS011;6449;47.666;9.160;2023-02-27T05:26:23;3.40;;;3.10;;
12770;SDS011;6449;47.666;9.160;2023-02-27T05:31:33;4.03;;;3.43;;
12770;SDS011;6449;47.666;9.160;2023-02-27T05:36:38;4.43;;;3.27;;
12770;SDS011;6449;47.666;9.160;2023-02-27T05:41:41;3.57;;;3.23;;
12770;SDS011;6449;47.666;9.160;2023-02-27T05:46:42;3.87;;;3.40;;
12770;SDS011;6449;47.666;9.160;2023-02-27T05:51:44;3.90;;;3.33;;
12770;SDS011;6449;47.666;9.160;2023-02-27T05:56:43;6.40;;;3.40;;
12770;SDS011;6449;47.666;9.160;2023-02-27T06:01:41;3.90;;;3.33;;
12770;SDS011;6449;47.666;9.160;2023-02-27T06:06:36;3.67;;;3.37;;
12770;SDS011;6449;47.666;9.160;2023-02-27T06:11:32;3.73;;;3.30;;
12770;SDS011;6449;47.666;9.160;2023-02-27T06:16:27;4.00;;;3.60;;
12770;SDS011;6449;47.666;9.160;2023-02-27T06:21:20;4.67;;;3.40;;
12770;SDS011;6449;47.666;9.160;2023-02-27T06:26:14;4.47;;;3.37;;
12770;SDS011;6449;47.666;9.160;2023-02-27T06:31:08;5.03;;;3.50;;
12770;SDS011;6449;47.666;9.160;2023-02-27T06:36:02;4.10;;;3.70;;
12770;SDS011;6449;47.666;9.160;2023-02-27T06:40:56;5.10;;;3.40;;
12770;SDS011;6449;47.666;9.160;2023-02-27T06:45:52;4.90;;;3.43;;
12770;SDS011;6449;47.666;9.160;2023-02-27T06:50:49;4.93;;;3.43;;
12770;SDS011;6449;47.666;9.160;2023-02-27T06:55:45;4.53;;;3.40;;
12770;SDS011;6449;47.666;9.160;2023-02-27T07:00:39;4.30;;;3.83;;
12770;SDS011;6449;47.666;9.160;2023-02-27T07:05:33;9.27;;;3.70;;
12770;SDS011;6449;47.666;9.160;2023-02-27T07:10:26;4.80;;;3.93;;
12770;SDS011;6449;47.666;9.160;2023-02-27T07:15:21;3.87;;;3.40;;
12770;SDS011;6449;47.666;9.160;2023-02-27T07:20:15;4.23;;;3.50;;
12770;SDS011;6449;47.666;9.160;2023-02-27T07:25:08;4.10;;;3.70;;
12770;SDS011;6449;47.666;9.160;2023-02-27T07:30:02;4.23;;;3.83;;
12770;SDS011;6449;47.666;9.160;2023-02-27T07:34:57;4.50;;;3.93;;
12770;SDS011;6449;47.666;9.160;2023-02-27T07:39:51;4.23;;;3.83;;
12770;SDS011;6449;47.666;9.160;2023-02-27T07:44:44;8.13;;;3.40;;
12770;SDS011;6449;47.666;9.160;2023-02-27T07:49:37;4.10;;;3.70;;
12770;SDS011;6449;47.666;9.160;2023-02-27T07:54:32;4.47;;;3.60;;
12770;SDS011;6449;47.666;9.160;2023-02-27T07:59:27;4.00;;;3.60;;
12770;SDS011;6449;47.666;9.160;2023-02-27T08:04:21;4.37;;;3.60;;
12770;SDS011;6449;47.666;9.160;2023-02-27T08:09:14;6.07;;;3.97;;
12770;SDS011;6449;47.666;9.160;2023-02-27T08:14:09;4.67;;;3.80;;
12770;SDS011;6449;47.666;9.160;2023-02-27T08:19:03;5.23;;;3.70;;
12770;SDS011;6449;47.666;9.160;2023-02-27T08:23:56;4.87;;;3.80;;
12770;SDS011;6449;47.666;9.160;2023-02-27T08:28:50;3.77;;;3.47;;
12770;SDS011;6449;47.666;9.160;2023-02-27T08:33:45;5.43;;;4.10;;
12770;SDS011;6449;47.666;9.160;2023-02-27T08:38:43;5.07;;;3.90;;
12770;SDS011;6449;47.666;9.160;2023-02-27T08:43:36;5.13;;;3.63;;
12770;SDS011;6449;47.666;9.160;2023-02-27T08:48:29;5.23;;;3.80;;
12770;SDS011;6449;47.666;9.160;2023-02-27T08:53:24;5.43;;;3.93;;
12770;SDS011;6449;47.666;9.160;2023-02-27T08:58:18;4.57;;;3.87;;
12770;SDS011;6449;47.666;9.160;2023-02-27T09:03:12;4.87;;;4.20;;
12770;SDS011;6449;47.666;9.160;2023-02-27T09:08:06;5.00;;;4.03;;
12770;SDS011;6449;47.666;9.160;2023-02-27T09:13:01;4.10;;;3.70;;
12770;SDS011;6449;47.666;9.160;2023-02-27T09:17:54;7.27;;;4.10;;
12770;SDS011;6449;47.666;9.160;2023-02-27T09:22:53;4.73;;;3.57;;
12770;SDS011;6449;47.666;9.160;2023-02-27T09:27:46;4.93;;;3.80;;
12770;SDS011;6449;47.666;9.160;2023-02-27T09:32:41;4.60;;;4.10;;
12770;SDS011;6449;47.666;9.160;2023-02-27T09:37:34;5.67;;;3.93;;
12770;SDS011;6449;47.666;9.160;2023-02-27T09:42:30;5.43;;;4.17;;
12770;SDS011;6449;47.666;9.160;2023-02-27T09:47:33;4.00;;;3.60;;
12770;SDS011;6449;47.666;9.160;2023-02-27T09:52:33;4.93;;;3.47;;
12770;SDS011;6449;47.666;9.160;2023-02-27T09:57:40;5.47;;;3.90;;
12770;SDS011;6449;47.666;9.160;2023-02-27T10:02:43;4.10;;;3.70;;
12770;SDS011;6449;47.666;9.160;2023-02-27T10:07:50;4.57;;;3.63;;
12770;SDS011;6449;47.666;9.160;2023-02-27T10:12:59;4.70;;;3.87;;
12770;SDS011;6449;47.666;9.160;2023-02-27T10:18:28;4.57;;;3.87;;
12770;SDS011;6449;47.666;9.160;2023-02-27T10:23:31;4.27;;;3.87;;
12770;SDS011;6449;47.666;9.160;2023-02-27T10:28:32;4.57;;;3.80;;
12770;SDS011;6449;47.666;9.160;2023-02-27T10:33:26;6.43;;;4.17;;
12770;SDS011;6449;47.666;9.160;2023-02-27T10:38:29;5.70;;;4.37;;
12770;SDS011;6449;47.666;9.160;2023-02-27T10:43:30;3.90;;;3.50;;
12770;SDS011;6449;47.666;9.160;2023-02-27T10:48:23;4.07;;;3.67;;
12770;SDS011;6449;47.666;9.160;2023-02-27T10:53:17;4.33;;;3.60;;
12770;SDS011;6449;47.666;9.160;2023-02-27T10:58:17;4.60;;;3.50;;
12770;SDS011;6449;47.666;9.160;2023-02-27T11:03:16;4.97;;;3.33;;
12770;SDS011;6449;47.666;9.160;2023-02-27T11:08:19;4.47;;;3.70;;
12770;SDS011;6449;47.666;9.160;2023-02-27T11:13:19;5.33;;;3.60;;
12770;SDS011;6449;47.666;9.160;2023-02-27T11:18:20;4.70;;;4.13;;
12770;SDS011;6449;47.666;9.160;2023-02-27T11:23:20;4.43;;;3.37;;
12770;SDS011;6449;47.666;9.160;2023-02-27T11:28:22;4.33;;;3.37;;
12770;SDS011;6449;47.666;9.160;2023-02-27T11:33:18;7.20;;;3.47;;
12770;SDS011;6449;47.666;9.160;2023-02-27T11:38:15;5.60;;;3.57;;
12770;SDS011;6449;47.666;9.160;2023-02-27T11:43:14;3.73;;;3.40;;
12770;SDS011;6449;47.666;9.160;2023-02-27T11:48:15;5.27;;;4.20;;
12770;SDS011;6449;47.666;9.160;2023-02-27T11:59:01;4.27;;;3.50;;
12770;SDS011;6449;47.666;9.160;2023-02-27T12:04:15;4.23;;;3.80;;
12770;SDS011;6449;47.666;9.160;2023-02-27T12:09:20;4.30;;;3.90;;
12770;SDS011;6449;47.666;9.160;2023-02-27T12:14:34;4.63;;;3.67;;
12770;SDS011;6449;47.666;9.160;2023-02-27T12:19:43;3.80;;;3.40;;
12770;SDS011;6449;47.666;9.160;2023-02-27T12:24:50;4.70;;;3.97;;
12770;SDS011;6449;47.666;9.160;2023-02-27T12:29:52;6.50;;;4.57;;
12770;SDS011;6449;47.666;9.160;2023-02-27T12:34:55;6.17;;;4.50;;
12770;SDS011;6449;47.666;9.160;2023-02-27T12:39:57;5.97;;;4.50;;
12770;SDS011;6449;47.666;9.160;2023-02-27T12:45:01;5.77;;;4.70;;
12770;SDS011;6449;47.666;9.160;2023-02-27T12:50:40;7.90;;;5.10;;
12770;SDS011;6449;47.666;9.160;2023-02-27T12:55:46;5.63;;;5.03;;
12770;SDS011;6449;47.666;9.160;2023-02-27T13:00:47;7.97;;;5.00;;
12770;SDS011;6449;47.666;9.160;2023-02-27T13:05:56;7.97;;;5.50;;
12770;SDS011;6449;47.666;9.160;2023-02-27T13:10:58;6.23;;;5.13;;
12770;SDS011;6449;47.666;9.160;2023-02-27T13:16:03;8.27;;;5.87;;
12770;SDS011;6449;47.666;9.160;2023-02-27T13:21:10;6.90;;;5.60;;
12770;SDS011;6449;47.666;9.160;2023-02-27T13:26:12;6.47;;;5.23;;
12770;SDS011;6449;47.666;9.160;2023-02-27T13:31:14;5.90;;;5.30;;
12770;SDS011;6449;47.666;9.160;2023-02-27T13:36:24;6.37;;;4.70;;
12770;SDS011;6449;47.666;9.160;2023-02-27T13:41:35;7.33;;;5.20;;
12770;SDS011;6449;47.666;9.160;2023-02-27T13:46:31;6.37;;;5.03;;
12770;SDS011;6449;47.666;9.160;2023-02-27T13:51:44;5.70;;;5.10;;
12770;SDS011;6449;47.666;9.160;2023-02-27T13:56:39;6.77;;;4.70;;
12770;SDS011;6449;47.666;9.160;2023-02-27T14:01:37;5.87;;;5.13;;
12770;SDS011;6449;47.666;9.160;2023-02-27T14:06:31;5.83;;;4.70;;
12770;SDS011;6449;47.666;9.160;2023-02-27T14:11:34;5.30;;;4.80;;
12770;SDS011;6449;47.666;9.160;2023-02-27T14:21:57;5.83;;;4.63;;
12770;SDS011;6449;47.666;9.160;2023-02-27T14:26:54;6.03;;;4.90;;
12770;SDS011;6449;47.666;9.160;2023-02-27T14:31:49;5.83;;;4.80;;
12770;SDS011;6449;47.666;9.160;2023-02-27T14:36:46;5.33;;;4.63;;
12770;SDS011;6449;47.666;9.160;2023-02-27T14:41:44;7.03;;;4.77;;
12770;SDS011;6449;47.666;9.160;2023-02-27T14:46:51;4.93;;;4.40;;
12770;SDS011;6449;47.666;9.160;2023-02-27T14:51:47;5.80;;;4.50;;
12770;SDS011;6449;47.666;9.160;2023-02-27T14:56:47;5.60;;;4.40;;
12770;SDS011;6449;47.666;9.160;2023-02-27T15:01:46;6.33;;;4.40;;
12770;SDS011;6449;47.666;9.160;2023-02-27T15:06:41;5.10;;;4.20;;
12770;SDS011;6449;47.666;9.160;2023-02-27T15:11:39;5.63;;;4.57;;
12770;SDS011;6449;47.666;9.160;2023-02-27T15:16:39;4.97;;;3.90;;
12770;SDS011;6449;47.666;9.160;2023-02-27T15:21:36;5.13;;;3.87;;
12770;SDS011;6449;47.666;9.160;2023-02-27T15:26:35;4.87;;;3.77;;
12770;SDS011;6449;47.666;9.160;2023-02-27T15:31:31;5.90;;;4.20;;
12770;SDS011;6449;47.666;9.160;2023-02-27T15:36:27;5.63;;;4.30;;
12770;SDS011;6449;47.666;9.160;2023-02-27T15:41:24;5.33;;;3.93;;
12770;SDS011;6449;47.666;9.160;2023-02-27T15:46:18;6.50;;;4.30;;
12770;SDS011;6449;47.666;9.160;2023-02-27T15:51:12;8.10;;;4.00;;
12770;SDS011;6449;47.666;9.160;2023-02-27T15:56:06;4.73;;;3.63;;
12770;SDS011;6449;47.666;9.160;2023-02-27T16:01:06;5.17;;;4.07;;
12770;SDS011;6449;47.666;9.160;2023-02-27T16:06:08;5.77;;;3.80;;
12770;SDS011;6449;47.666;9.160;2023-02-27T16:11:16;6.50;;;4.33;;
12770;SDS011;6449;47.666;9.160;2023-02-27T16:16:22;5.53;;;3.70;;
12770;SDS011;6449;47.666;9.160;2023-02-27T16:21:26;4.03;;;3.67;;
12770;SDS011;6449;47.666;9.160;2023-02-27T16:26:26;4.27;;;3.67;;
12770;SDS011;6449;47.666;9.160;2023-02-27T16:31:25;4.97;;;3.80;;
12770;SDS011;6449;47.666;9.160;2023-02-27T16:36:21;4.73;;;3.60;;
12770;SDS011;6449;47.666;9.160;2023-02-27T16:41:18;4.93;;;3.70;;
12770;SDS011;6449;47.666;9.160;2023-02-27T16:46:15;4.57;;;2.77;;
12770;SDS011;6449;47.666;9.160;2023-02-27T16:51:15;3.70;;;3.30;;
12770;SDS011;6449;47.666;9.160;2023-02-27T16:56:10;4.03;;;2.90;;
12770;SDS011;6449;47.666;9.160;2023-02-27T17:01:05;4.40;;;3.30;;
12770;SDS011;6449;47.666;9.160;2023-02-27T17:05:58;4.93;;;3.50;;
12770;SDS011;6449;47.666;9.160;2023-02-27T17:10:55;5.43;;;3.33;;
12770;SDS011;6449;47.666;9.160;2023-02-27T17:15:49;8.83;;;3.43;;
12770;SDS011;6449;47.666;9.160;2023-02-27T17:20:42;4.57;;;3.43;;
12770;SDS011;6449;47.666;9.160;2023-02-27T17:25:35;3.87;;;3.20;;
12770;SDS011;6449;47.666;9.160;2023-02-27T17:30:32;5.30;;;3.27;;
12770;SDS011;6449;47.666;9.160;2023-02-27T17:35:26;3.97;;;3.50;;
12770;SDS011;6449;47.666;9.160;2023-02-27T17:40:20;9.23;;;3.93;;
12770;SDS011;6449;47.666;9.160;2023-02-27T17:45:14;5.23;;;3.27;;
12770;SDS011;6449;47.666;9.160;2023-02-27T17:50:09;4.90;;;3.73;;
12770;SDS011;6449;47.666;9.160;2023-02-27T17:55:03;4.73;;;3.67;;
12770;SDS011;6449;47.666;9.160;2023-02-27T17:59:58;4.87;;;3.87;;
12770;SDS011;6449;47.666;9.160;2023-02-27T18:04:54;4.73;;;4.03;;
12770;SDS011;6449;47.666;9.160;2023-02-27T18:09:51;4.97;;;3.80;;
12770;SDS011;6449;47.666;9.160;2023-02-27T18:14:44;5.03;;;4.30;;
12770;SDS011;6449;47.666;9.160;2023-02-27T18:19:38;5.83;;;4.67;;
12770;SDS011;6449;47.666;9.160;2023-02-27T18:24:32;6.10;;;4.30;;
12770;SDS011;6449;47.666;9.160;2023-02-27T18:29:27;5.47;;;3.90;;
12770;SDS011;6449;47.666;9.160;2023-02-27T18:34:21;4.37;;;3.60;;
12770;SDS011;6449;47.666;9.160;2023-02-27T18:39:15;5.07;;;3.90;;
12770;SDS011;6449;47.666;9.160;2023-02-27T18:44:09;4.73;;;4.10;;
12770;SDS011;6449;47.666;9.160;2023-02-27T18:49:04;5.17;;;4.10;;
12770;SDS011;6449;47.666;9.160;2023-02-27T18:53:58;6.37;;;4.40;;
12770;SDS011;6449;47.666;9.160;2023-02-27T18:58:54;6.77;;;4.53;;
12770;SDS011;6449;47.666;9.160;2023-02-27T19:03:52;4.90;;;4.40;;
12770;SDS011;6449;47.666;9.160;2023-02-27T19:08:55;6.43;;;4.20;;
12770;SDS011;6449;47.666;9.160;2023-02-27T19:13:48;4.93;;;3.90;;
12770;SDS011;6449;47.666;9.160;2023-02-27T19:18:42;4.90;;;3.90;;
12770;SDS011;6449;47.666;9.160;2023-02-27T19:23:36;6.17;;;4.30;;
12770;SDS011;6449;47.666;9.160;2023-02-27T19:28:31;5.23;;;4.00;;
12770;SDS011;6449;47.666;9.160;2023-02-27T19:33:25;4.30;;;3.80;;
12770;SDS011;6449;47.666;9.160;2023-02-27T19:38:18;3.90;;;3.47;;
12770;SDS011;6449;47.666;9.160;2023-02-27T19:43:12;5.27;;;3.50;;
12770;SDS011;6449;47.666;9.160;2023-02-27T19:48:07;5.60;;;3.50;;
12770;SDS011;6449;47.666;9.160;2023-02-27T19:53:02;4.83;;;3.63;;
12770;SDS011;6449;47.666;9.160;2023-02-27T19:57:55;5.67;;;3.93;;
12770;SDS011;6449;47.666;9.160;2023-02-27T20:02:49;4.67;;;3.90;;
12770;SDS011;6449;47.666;9.160;2023-02-27T20:07:43;6.23;;;3.87;;
12770;SDS011;6449;47.666;9.160;2023-02-27T20:12:38;7.93;;;3.87;;
12770;SDS011;6449;47.666;9.160;2023-02-27T20:17:32;6.67;;;3.90;;
12770;SDS011;6449;47.666;9.160;2023-02-27T20:22:25;3.90;;;3.50;;
12770;SDS011;6449;47.666;9.160;2023-02-27T20:27:20;4.70;;;3.17;;
12770;SDS011;6449;47.666;9.160;2023-02-27T20:32:13;4.27;;;3.27;;
12770;SDS011;6449;47.666;9.160;2023-02-27T20:37:11;8.90;;;3.77;;
12770;SDS011;6449;47.666;9.160;2023-02-27T20:42:05;5.23;;;3.93;;
12770;SDS011;6449;47.666;9.160;2023-02-27T20:46:59;5.23;;;3.93;;
12770;SDS011;6449;47.666;9.160;2023-02-27T20:51:53;8.13;;;3.93;;
12770;SDS011;6449;47.666;9.160;2023-02-27T20:56:49;5.80;;;3.90;;
12770;SDS011;6449;47.666;9.160;2023-02-27T21:01:44;6.77;;;4.43;;
12770;SDS011;6449;47.666;9.160;2023-02-27T21:06:43;5.03;;;3.90;;
12770;SDS011;6449;47.666;9.160;2023-02-27T21:11:36;4.80;;;4.30;;
12770;SDS011;6449;47.666;9.160;2023-02-27T21:16:33;5.83;;;3.80;;
12770;SDS011;6449;47.666;9.160;2023-02-27T21:21:27;6.27;;;4.47;;
12770;SDS011;6449;47.666;9.160;2023-02-27T21:26:25;5.17;;;4.23;;
12770;SDS011;6449;47.666;9.160;2023-02-27T21:31:27;9.50;;;4.37;;
12770;SDS011;6449;47.666;9.160;2023-02-27T21:36:34;7.57;;;4.47;;
12770;SDS011;6449;47.666;9.160;2023-02-27T21:41:40;5.63;;;4.40;;
12770;SDS011;6449;47.666;9.160;2023-02-27T21:46:39;5.47;;;4.47;;
12770;SDS011;6449;47.666;9.160;2023-02-27T21:51:32;7.50;;;5.07;;
12770;SDS011;6449;47.666;9.160;2023-02-27T21:56:31;6.23;;;4.93;;
12770;SDS011;6449;47.666;9.160;2023-02-27T22:01:26;5.83;;;5.07;;
12770;SDS011;6449;47.666;9.160;2023-02-27T22:06:22;7.83;;;5.40;;
12770;SDS011;6449;47.666;9.160;2023-02-27T22:11:18;6.67;;;5.30;;
12770;SDS011;6449;47.666;9.160;2023-02-27T22:16:12;7.30;;;4.93;;
12770;SDS011;6449;47.666;9.160;2023-02-27T22:21:07;6.73;;;4.80;;
12770;SDS011;6449;47.666;9.160;2023-02-27T22:26:04;5.73;;;5.13;;
12770;SDS011;6449;47.666;9.160;2023-02-27T22:31:05;6.80;;;5.17;;
12770;SDS011;6449;47.666;9.160;2023-02-27T22:36:03;6.47;;;5.47;;
12770;SDS011;6449;47.666;9.160;2023-02-27T22:41:01;7.13;;;5.77;;
12770;SDS011;6449;47.666;9.160;2023-02-27T22:45:59;7.63;;;5.63;;
12770;SDS011;6449;47.666;9.160;2023-02-27T22:50:57;7.33;;;5.83;;
12770;SDS011;6449;47.666;9.160;2023-02-27T22:55:55;8.60;;;6.10;;
12770;SDS011;6449;47.666;9.160;2023-02-27T23:00:48;7.80;;;6.37;;
12770;SDS011;6449;47.666;9.160;2023-02-27T23:05:45;8.30;;;5.57;;
12770;SDS011;6449;47.666;9.160;2023-02-27T23:10:41;7.63;;;6.07;;
12770;SDS011;6449;47.666;9.160;2023-02-27T23:15:36;8.73;;;6.23;;
12770;SDS011;6449;47.666;9.160;2023-02-27T23:20:29;6.77;;;6.07;;
12770;SDS011;6449;47.666;9.160;2023-02-27T23:25:23;10.13;;;6.53;;
12770;SDS011;6449;47.666;9.160;2023-02-27T23:30:17;8.57;;;6.43;;
12770;SDS011;6449;47.666;9.160;2023-02-27T23:35:12;8.53;;;6.00;;
12770;SDS011;6449;47.666;9.160;2023-02-27T23:40:07;8.87;;;6.30;;
12770;SDS011;6449;47.666;9.160;2023-02-27T23:45:03;7.30;;;6.20;;
12770;SDS011;6449;47.666;9.160;2023-02-27T23:50:20;7.60;;;6.23;;
12770;SDS011;6449;47.666;9.160;2023-02-27T23:55:16;7.50;;;6.43;;
